Aviation Digital Data Service (ADDS)

Output produced by METARs form (0102 UTC 23 March 2019)
found at http://www.aviationweather.gov/metar/data/
 
METAR text: URWW 230030Z 19009MPS 6000 -SHRA SCT007 BKN023CB 02/01 Q1005 R24/290060 TEMPO 0500 +SHRASN BKN003 BKN020CB RMK OBST OBSC
Conditions at: URWW (VOLGOGRAD/GUMRAK, RU) observed 0030 UTC 23 March 2019
Temperature: 2.0°C (36°F)
Dewpoint: 1.0°C (34°F) [RH = 93%]
Pressure (altimeter): 29.68 inches Hg (1005.0 mb)
Winds: from the S (190 degrees) at 20 MPH (17 knots; 8.7 m/s)
Visibility: 4 miles ( 6 km)
Ceiling: 2300 feet AGL
Clouds: scattered clouds at 700 feet AGL
broken clouds at 2300 feet AGL
Weather: -SHRA  (light rain showers)

METAR text: URWW 230000Z 19008MPS 9999 -SHRA SCT009 BKN036CB 03/01 Q1006 R24/290060 TEMPO 0500 +SHRASN BKN003 BKN020CB RMK OBST OBSC
Conditions at: URWW (VOLGOGRAD/GUMRAK, RU) observed 0000 UTC 23 March 2019
Temperature: 3.0°C (37°F)
Dewpoint: 1.0°C (34°F) [RH = 87%]
Pressure (altimeter): 29.70 inches Hg (1006.0 mb)
Winds: from the S (190 degrees) at 18 MPH (16 knots; 8.2 m/s)
Visibility: 6 or more miles (10+ km)
Ceiling: 3600 feet AGL
Clouds: scattered clouds at 900 feet AGL
broken clouds at 3600 feet AGL
Weather: -SHRA  (light rain showers)

METAR text: URWW 222330Z 19009MPS 5000 -SHRA SCT010 BKN030CB 03/01 Q1007 R24/290060 TEMPO 0500 +SHRASN BKN003 BKN020CB
Conditions at: URWW (VOLGOGRAD/GUMRAK, RU) observed 2330 UTC 22 March 2019
Temperature: 3.0°C (37°F)
Dewpoint: 1.0°C (34°F) [RH = 87%]
Pressure (altimeter): 29.73 inches Hg (1007.0 mb)
Winds: from the S (190 degrees) at 20 MPH (17 knots; 8.7 m/s)
Visibility: 3 miles ( 5 km)
Ceiling: 3000 feet AGL
Clouds: scattered clouds at 1000 feet AGL
broken clouds at 3000 feet AGL
Weather: -SHRA  (light rain showers)

METAR text: URWW 222300Z 19008MPS 9999 -SHRA BKN018CB 03/01 Q1007 R24/290060 TEMPO 0500 +SHRASN BKN003 BKN020CB
Conditions at: URWW (VOLGOGRAD/GUMRAK, RU) observed 2300 UTC 22 March 2019
Temperature: 3.0°C (37°F)
Dewpoint: 1.0°C (34°F) [RH = 87%]
Pressure (altimeter): 29.73 inches Hg (1007.0 mb)
Winds: from the S (190 degrees) at 18 MPH (16 knots; 8.2 m/s)
Visibility: 6 or more miles (10+ km)
Ceiling: 1800 feet AGL
Clouds: broken clouds at 1800 feet AGL
Weather: -SHRA  (light rain showers)

METAR text: URWW 222230Z 19007MPS 9999 -SHRA BKN035CB 03/01 Q1008 R24/290060 TEMPO 0500 +SHRASN BKN003 BKN020CB
Conditions at: URWW (VOLGOGRAD/GUMRAK, RU) observed 2230 UTC 22 March 2019
Temperature: 3.0°C (37°F)
Dewpoint: 1.0°C (34°F) [RH = 87%]
Pressure (altimeter): 29.76 inches Hg (1008.0 mb)
Winds: from the S (190 degrees) at 16 MPH (14 knots; 7.2 m/s)
Visibility: 6 or more miles (10+ km)
Ceiling: 3500 feet AGL
Clouds: broken clouds at 3500 feet AGL
Weather: -SHRA  (light rain showers)

METAR text: URWW 222200Z 19007MPS 9999 -SHRA BKN019CB 03/01 Q1008 R24/290060 TEMPO 0500 +SHRASN BKN003 BKN020CB
Conditions at: URWW (VOLGOGRAD/GUMRAK, RU) observed 2200 UTC 22 March 2019
Temperature: 3.0°C (37°F)
Dewpoint: 1.0°C (34°F) [RH = 87%]
Pressure (altimeter): 29.76 inches Hg (1008.0 mb)
Winds: from the S (190 degrees) at 16 MPH (14 knots; 7.2 m/s)
Visibility: 6 or more miles (10+ km)
Ceiling: 1900 feet AGL
Clouds: broken clouds at 1900 feet AGL
Weather: -SHRA  (light rain showers)

METAR text: URWW 222130Z 19007MPS 9999 -SHRA SCT013 BKN030CB 03/01 Q1009 R24/290060 TEMPO 0500 +SHRASN BKN003 BKN020CB
Conditions at: URWW (VOLGOGRAD/GUMRAK, RU) observed 2130 UTC 22 March 2019
Temperature: 3.0°C (37°F)
Dewpoint: 1.0°C (34°F) [RH = 87%]
Pressure (altimeter): 29.79 inches Hg (1009.0 mb)
Winds: from the S (190 degrees) at 16 MPH (14 knots; 7.2 m/s)
Visibility: 6 or more miles (10+ km)
Ceiling: 3000 feet AGL
Clouds: scattered clouds at 1300 feet AGL
broken clouds at 3000 feet AGL
Weather: -SHRA  (light rain showers)

METAR text: URWW 222100Z 19006MPS 9999 -SHRA BKN019CB 03/00 Q1009 R24/290060 TEMPO 0500 +SHRASN BKN003 BKN020CB
Conditions at: URWW (VOLGOGRAD/GUMRAK, RU) observed 2100 UTC 22 March 2019
Temperature: 3.0°C (37°F)
Dewpoint: 0.0°C (32°F) [RH = 81%]
Pressure (altimeter): 29.79 inches Hg (1009.0 mb)
Winds: from the S (190 degrees) at 14 MPH (12 knots; 6.2 m/s)
Visibility: 6 or more miles (10+ km)
Ceiling: 1900 feet AGL
Clouds: broken clouds at 1900 feet AGL
Weather: -SHRA  (light rain showers)

METAR text: URWW 222030Z 19005MPS 9999 -SHRA BKN029CB 03/00 Q1010 R24/290060 TEMPO 0500 +SHRASN BKN003 BKN020CB
Conditions at: URWW (VOLGOGRAD/GUMRAK, RU) observed 2030 UTC 22 March 2019
Temperature: 3.0°C (37°F)
Dewpoint: 0.0°C (32°F) [RH = 81%]
Pressure (altimeter): 29.82 inches Hg (1010.0 mb)
Winds: from the S (190 degrees) at 12 MPH (10 knots; 5.1 m/s)
Visibility: 6 or more miles (10+ km)
Ceiling: 2900 feet AGL
Clouds: broken clouds at 2900 feet AGL
Weather: -SHRA  (light rain showers)

METAR text: URWW 222000Z 20005MPS 9999 BKN030 03/00 Q1011 R24/290060 TEMPO 1000 SHRASN BKN003 BKN015CB
Conditions at: URWW (VOLGOGRAD/GUMRAK, RU) observed 2000 UTC 22 March 2019
Temperature: 3.0°C (37°F)
Dewpoint: 0.0°C (32°F) [RH = 81%]
Pressure (altimeter): 29.85 inches Hg (1011.0 mb)
Winds: from the SSW (200 degrees) at 12 MPH (10 knots; 5.1 m/s)
Visibility: 6 or more miles (10+ km)
Ceiling: 3000 feet AGL
Clouds: broken clouds at 3000 feet AGL
Weather: no significant weather observed at this time

METAR text: URWW 221930Z 20005MPS CAVOK 03/01 Q1011 R24/290060 TEMPO 1000 SHRASN BKN003 BKN015CB
Conditions at: URWW (VOLGOGRAD/GUMRAK, RU) observed 1930 UTC 22 March 2019
Temperature: 3.0°C (37°F)
Dewpoint: 1.0°C (34°F) [RH = 87%]
Pressure (altimeter): 29.85 inches Hg (1011.0 mb)
Winds: from the SSW (200 degrees) at 12 MPH (10 knots; 5.1 m/s)
Visibility: 6 or more miles (10+ km)
Ceiling: ceiling and visibility are OK
Clouds: unknown
Weather: no significant weather observed at this time

METAR text: URWW 221900Z 21005MPS 9999 BKN038 03/01 Q1012 R24/290060 TEMPO 1000 SHRASN BKN003 BKN015CB
Conditions at: URWW (VOLGOGRAD/GUMRAK, RU) observed 1900 UTC 22 March 2019
Temperature: 3.0°C (37°F)
Dewpoint: 1.0°C (34°F) [RH = 87%]
Pressure (altimeter): 29.88 inches Hg (1012.0 mb)
Winds: from the SSW (210 degrees) at 12 MPH (10 knots; 5.1 m/s)
Visibility: 6 or more miles (10+ km)
Ceiling: 3800 feet AGL
Clouds: broken clouds at 3800 feet AGL
Weather: no significant weather observed at this time

METAR text: URWW 221830Z 21005MPS 9999 BKN043 02/01 Q1012 R24/290060 TEMPO 1000 SHRASN BKN003 BKN015CB
Conditions at: URWW (VOLGOGRAD/GUMRAK, RU) observed 1830 UTC 22 March 2019
Temperature: 2.0°C (36°F)
Dewpoint: 1.0°C (34°F) [RH = 93%]
Pressure (altimeter): 29.88 inches Hg (1012.0 mb)
Winds: from the SSW (210 degrees) at 12 MPH (10 knots; 5.1 m/s)
Visibility: 6 or more miles (10+ km)
Ceiling: 4300 feet AGL
Clouds: broken clouds at 4300 feet AGL
Weather: no significant weather observed at this time

METAR text: URWW 221800Z 21004MPS CAVOK 02/01 Q1013 R24/290060 TEMPO 1000 SHRASN BKN003 BKN015CB
Conditions at: URWW (VOLGOGRAD/GUMRAK, RU) observed 1800 UTC 22 March 2019
Temperature: 2.0°C (36°F)
Dewpoint: 1.0°C (34°F) [RH = 93%]
Pressure (altimeter): 29.91 inches Hg (1013.0 mb)
Winds: from the SSW (210 degrees) at 9 MPH (8 knots; 4.1 m/s)
Visibility: 6 or more miles (10+ km)
Ceiling: ceiling and visibility are OK
Clouds: unknown
Weather: no significant weather observed at this time

METAR text: URWW 221730Z 21004MPS CAVOK 02/01 Q1013 R24/290060 TEMPO 1000 SHRASN BKN003 BKN015CB
Conditions at: URWW (VOLGOGRAD/GUMRAK, RU) observed 1730 UTC 22 March 2019
Temperature: 2.0°C (36°F)
Dewpoint: 1.0°C (34°F) [RH = 93%]
Pressure (altimeter): 29.91 inches Hg (1013.0 mb)
Winds: from the SSW (210 degrees) at 9 MPH (8 knots; 4.1 m/s)
Visibility: 6 or more miles (10+ km)
Ceiling: ceiling and visibility are OK
Clouds: unknown
Weather: no significant weather observed at this time

METAR text: URWW 221700Z 21004MPS 9999 BKN047 02/01 Q1013 R24/290060 TEMPO 1000 SHRASN BKN003 BKN015CB
Conditions at: URWW (VOLGOGRAD/GUMRAK, RU) observed 1700 UTC 22 March 2019
Temperature: 2.0°C (36°F)
Dewpoint: 1.0°C (34°F) [RH = 93%]
Pressure (altimeter): 29.91 inches Hg (1013.0 mb)
Winds: from the SSW (210 degrees) at 9 MPH (8 knots; 4.1 m/s)
Visibility: 6 or more miles (10+ km)
Ceiling: 4700 feet AGL
Clouds: broken clouds at 4700 feet AGL
Weather: no significant weather observed at this time

METAR text: URWW 221630Z 22004MPS 9999 BKN029 02/01 Q1014 R24/290060 TEMPO 1000 SHRASN BKN003 BKN015CB
Conditions at: URWW (VOLGOGRAD/GUMRAK, RU) observed 1630 UTC 22 March 2019
Temperature: 2.0°C (36°F)
Dewpoint: 1.0°C (34°F) [RH = 93%]
Pressure (altimeter): 29.94 inches Hg (1014.0 mb)
Winds: from the SW (220 degrees) at 9 MPH (8 knots; 4.1 m/s)
Visibility: 6 or more miles (10+ km)
Ceiling: 2900 feet AGL
Clouds: broken clouds at 2900 feet AGL
Weather: no significant weather observed at this time

METAR text: URWW 221600Z 23004MPS CAVOK 02/01 Q1014 R24/290060 TEMPO 1000 SHRASN BKN003 BKN015CB
Conditions at: URWW (VOLGOGRAD/GUMRAK, RU) observed 1600 UTC 22 March 2019
Temperature: 2.0°C (36°F)
Dewpoint: 1.0°C (34°F) [RH = 93%]
Pressure (altimeter): 29.94 inches Hg (1014.0 mb)
Winds: from the SW (230 degrees) at 9 MPH (8 knots; 4.1 m/s)
Visibility: 6 or more miles (10+ km)
Ceiling: ceiling and visibility are OK
Clouds: unknown
Weather: no significant weather observed at this time

METAR text: URWW 221530Z 23004MPS CAVOK 02/01 Q1014 R24/290060 TEMPO 1000 SHRASN BKN003 BKN015CB
Conditions at: URWW (VOLGOGRAD/GUMRAK, RU) observed 1530 UTC 22 March 2019
Temperature: 2.0°C (36°F)
Dewpoint: 1.0°C (34°F) [RH = 93%]
Pressure (altimeter): 29.94 inches Hg (1014.0 mb)
Winds: from the SW (230 degrees) at 9 MPH (8 knots; 4.1 m/s)
Visibility: 6 or more miles (10+ km)
Ceiling: ceiling and visibility are OK
Clouds: unknown
Weather: no significant weather observed at this time

METAR text: URWW 221500Z 25003MPS 9999 BKN039CB 03/01 Q1014 R24/290060 TEMPO 1000 SHRASN BKN003 BKN015CB
Conditions at: URWW (VOLGOGRAD/GUMRAK, RU) observed 1500 UTC 22 March 2019
Temperature: 3.0°C (37°F)
Dewpoint: 1.0°C (34°F) [RH = 87%]
Pressure (altimeter): 29.94 inches Hg (1014.0 mb)
Winds: from the WSW (250 degrees) at 7 MPH (6 knots; 3.1 m/s)
Visibility: 6 or more miles (10+ km)
Ceiling: 3900 feet AGL
Clouds: broken clouds at 3900 feet AGL
Weather: no significant weather observed at this time

METAR text: URWW 221430Z 27005MPS 9999 -SHRASN BKN018CB 02/01 Q1014 RESHRASN R24/290060 TEMPO 1000 SHRASN BKN003 BKN015CB
Conditions at: URWW (VOLGOGRAD/GUMRAK, RU) observed 1430 UTC 22 March 2019
Temperature: 2.0°C (36°F)
Dewpoint: 1.0°C (34°F) [RH = 93%]
Pressure (altimeter): 29.94 inches Hg (1014.0 mb)
Winds: from the W (270 degrees) at 12 MPH (10 knots; 5.1 m/s)
Visibility: 6 or more miles (10+ km)
Ceiling: 1800 feet AGL
Clouds: broken clouds at 1800 feet AGL
Weather: -SHRA -SHSN  (light rain showers, light snow showers)

METAR text: URWW 221400Z 25006MPS 9999 BKN015CB 03/00 Q1014 R24/290060 NOSIG
Conditions at: URWW (VOLGOGRAD/GUMRAK, RU) observed 1400 UTC 22 March 2019
Temperature: 3.0°C (37°F)
Dewpoint: 0.0°C (32°F) [RH = 81%]
Pressure (altimeter): 29.94 inches Hg (1014.0 mb)
Winds: from the WSW (250 degrees) at 14 MPH (12 knots; 6.2 m/s)
Visibility: 6 or more miles (10+ km)
Ceiling: 1500 feet AGL
Clouds: broken clouds at 1500 feet AGL
Weather: no significant weather observed at this time

METAR text: URWW 221330Z 25007MPS 9999 BKN050CB 04/01 Q1014 R24/290060 NOSIG
Conditions at: URWW (VOLGOGRAD/GUMRAK, RU) observed 1330 UTC 22 March 2019
Temperature: 4.0°C (39°F)
Dewpoint: 1.0°C (34°F) [RH = 81%]
Pressure (altimeter): 29.94 inches Hg (1014.0 mb)
Winds: from the WSW (250 degrees) at 16 MPH (14 knots; 7.2 m/s)
Visibility: 6 or more miles (10+ km)
Ceiling: 5000 feet AGL
Clouds: broken clouds at 5000 feet AGL
Weather: no significant weather observed at this time

METAR text: URWW 221300Z 25006MPS 9999 BKN049CB 04/00 Q1015 R24/290060 NOSIG
Conditions at: URWW (VOLGOGRAD/GUMRAK, RU) observed 1300 UTC 22 March 2019
Temperature: 4.0°C (39°F)
Dewpoint: 0.0°C (32°F) [RH = 75%]
Pressure (altimeter): 29.97 inches Hg (1015.0 mb)
Winds: from the WSW (250 degrees) at 14 MPH (12 knots; 6.2 m/s)
Visibility: 6 or more miles (10+ km)
Ceiling: 4900 feet AGL
Clouds: broken clouds at 4900 feet AGL
Weather: no significant weather observed at this time

METAR text: URWW 221230Z 26007MPS 9999 BKN011CB 04/01 Q1015 R24/290060 NOSIG
Conditions at: URWW (VOLGOGRAD/GUMRAK, RU) observed 1230 UTC 22 March 2019
Temperature: 4.0°C (39°F)
Dewpoint: 1.0°C (34°F) [RH = 81%]
Pressure (altimeter): 29.97 inches Hg (1015.0 mb)
Winds: from the W (260 degrees) at 16 MPH (14 knots; 7.2 m/s)
Visibility: 6 or more miles (10+ km)
Ceiling: 1100 feet AGL
Clouds: broken clouds at 1100 feet AGL
Weather: no significant weather observed at this time

METAR text: URWW 221200Z 25007MPS 9999 -SHRA BKN018CB 04/00 Q1016 R24/290060 NOSIG
Conditions at: URWW (VOLGOGRAD/GUMRAK, RU) observed 1200 UTC 22 March 2019
Temperature: 4.0°C (39°F)
Dewpoint: 0.0°C (32°F) [RH = 75%]
Pressure (altimeter): 30.00 inches Hg (1016.0 mb)
Winds: from the WSW (250 degrees) at 16 MPH (14 knots; 7.2 m/s)
Visibility: 6 or more miles (10+ km)
Ceiling: 1800 feet AGL
Clouds: broken clouds at 1800 feet AGL
Weather: -SHRA  (light rain showers)

METAR text: URWW 221130Z 25006MPS 9999 -SHRA BKN021CB 04/00 Q1016 R24/010070 NOSIG
Conditions at: URWW (VOLGOGRAD/GUMRAK, RU) observed 1130 UTC 22 March 2019
Temperature: 4.0°C (39°F)
Dewpoint: 0.0°C (32°F) [RH = 75%]
Pressure (altimeter): 30.00 inches Hg (1016.0 mb)
Winds: from the WSW (250 degrees) at 14 MPH (12 knots; 6.2 m/s)
Visibility: 6 or more miles (10+ km)
Ceiling: 2100 feet AGL
Clouds: broken clouds at 2100 feet AGL
Weather: -SHRA  (light rain showers)

METAR text: URWW 221100Z 25005MPS 9999 BKN031CB 05/M01 Q1016 R24/010070 NOSIG
Conditions at: URWW (VOLGOGRAD/GUMRAK, RU) observed 1100 UTC 22 March 2019
Temperature: 5.0°C (41°F)
Dewpoint: -1.0°C (30°F) [RH = 65%]
Pressure (altimeter): 30.00 inches Hg (1016.0 mb)
Winds: from the WSW (250 degrees) at 12 MPH (10 knots; 5.1 m/s)
Visibility: 6 or more miles (10+ km)
Ceiling: 3100 feet AGL
Clouds: broken clouds at 3100 feet AGL
Weather: no significant weather observed at this time

METAR text: URWW 221030Z 24003MPS 9999 BKN029CB 05/M01 Q1016 R24/010070 NOSIG
Conditions at: URWW (VOLGOGRAD/GUMRAK, RU) observed 1030 UTC 22 March 2019
Temperature: 5.0°C (41°F)
Dewpoint: -1.0°C (30°F) [RH = 65%]
Pressure (altimeter): 30.00 inches Hg (1016.0 mb)
Winds: from the WSW (240 degrees) at 7 MPH (6 knots; 3.1 m/s)
Visibility: 6 or more miles (10+ km)
Ceiling: 2900 feet AGL
Clouds: broken clouds at 2900 feet AGL
Weather: no significant weather observed at this time

METAR text: URWW 221000Z 23003MPS 210V270 9999 BKN038CB 05/M01 Q1016 R24/010070 NOSIG
Conditions at: URWW (VOLGOGRAD/GUMRAK, RU) observed 1000 UTC 22 March 2019
Temperature: 5.0°C (41°F)
Dewpoint: -1.0°C (30°F) [RH = 65%]
Pressure (altimeter): 30.00 inches Hg (1016.0 mb)
Winds: from the SW (230 degrees) at 7 MPH (6 knots; 3.1 m/s)
Visibility: 6 or more miles (10+ km)
Ceiling: 3800 feet AGL
Clouds: broken clouds at 3800 feet AGL
Weather: no significant weather observed at this time

METAR text: URWW 220930Z 29003MPS 260V330 9999 BKN030CB 05/M01 Q1017 R24/010070 NOSIG
Conditions at: URWW (VOLGOGRAD/GUMRAK, RU) observed 0930 UTC 22 March 2019
Temperature: 5.0°C (41°F)
Dewpoint: -1.0°C (30°F) [RH = 65%]
Pressure (altimeter): 30.03 inches Hg (1017.0 mb)
Winds: from the WNW (290 degrees) at 7 MPH (6 knots; 3.1 m/s)
Visibility: 6 or more miles (10+ km)
Ceiling: 3000 feet AGL
Clouds: broken clouds at 3000 feet AGL
Weather: no significant weather observed at this time

METAR text: URWW 220900Z 23003MPS 200V310 9999 BKN020 05/M01 Q1017 R24/010070 NOSIG
Conditions at: URWW (VOLGOGRAD/GUMRAK, RU) observed 0900 UTC 22 March 2019
Temperature: 5.0°C (41°F)
Dewpoint: -1.0°C (30°F) [RH = 65%]
Pressure (altimeter): 30.03 inches Hg (1017.0 mb)
Winds: from the SW (230 degrees) at 7 MPH (6 knots; 3.1 m/s)
Visibility: 6 or more miles (10+ km)
Ceiling: 2000 feet AGL
Clouds: broken clouds at 2000 feet AGL
Weather: no significant weather observed at this time

METAR text: URWW 220830Z 30003MPS 270V350 9999 BKN014 04/00 Q1017 R24/290060 NOSIG
Conditions at: URWW (VOLGOGRAD/GUMRAK, RU) observed 0830 UTC 22 March 2019
Temperature: 4.0°C (39°F)
Dewpoint: 0.0°C (32°F) [RH = 75%]
Pressure (altimeter): 30.03 inches Hg (1017.0 mb)
Winds: from the WNW (300 degrees) at 7 MPH (6 knots; 3.1 m/s)
Visibility: 6 or more miles (10+ km)
Ceiling: 1400 feet AGL
Clouds: broken clouds at 1400 feet AGL
Weather: no significant weather observed at this time

METAR text: URWW 220800Z 30004MPS 9999 BKN008 03/01 Q1018 R24/290060 NOSIG RMK OBST OBSC
Conditions at: URWW (VOLGOGRAD/GUMRAK, RU) observed 0800 UTC 22 March 2019
Temperature: 3.0°C (37°F)
Dewpoint: 1.0°C (34°F) [RH = 87%]
Pressure (altimeter): 30.06 inches Hg (1018.0 mb)
Winds: from the WNW (300 degrees) at 9 MPH (8 knots; 4.1 m/s)
Visibility: 6 or more miles (10+ km)
Ceiling: 800 feet AGL
Clouds: broken clouds at 800 feet AGL
Weather: no significant weather observed at this time

METAR text: URWW 220730Z 28005MPS 9999 BKN006 02/02 Q1018 R24/290060 TEMPO 0500 FG OVC002 RMK OBST OBSC
Conditions at: URWW (VOLGOGRAD/GUMRAK, RU) observed 0730 UTC 22 March 2019
Temperature: 2.0°C (36°F)
Dewpoint: 2.0°C (36°F) [RH = 100%]
Pressure (altimeter): 30.06 inches Hg (1018.0 mb)
Winds: from the W (280 degrees) at 12 MPH (10 knots; 5.1 m/s)
Visibility: 6 or more miles (10+ km)
Ceiling: 600 feet AGL
Clouds: broken clouds at 600 feet AGL
Weather: no significant weather observed at this time

METAR text: URWW 220700Z 26004MPS 8000 BKN003 02/02 Q1018 R24/290060 TEMPO 0500 FG RMK OBST OBSC
Conditions at: URWW (VOLGOGRAD/GUMRAK, RU) observed 0700 UTC 22 March 2019
Temperature: 2.0°C (36°F)
Dewpoint: 2.0°C (36°F) [RH = 100%]
Pressure (altimeter): 30.06 inches Hg (1018.0 mb)
Winds: from the W (260 degrees) at 9 MPH (8 knots; 4.1 m/s)
Visibility: 5 miles ( 8 km)
Ceiling: 300 feet AGL
Clouds: broken clouds at 300 feet AGL
Weather: no significant weather observed at this time

METAR text: URWW 220630Z 26003MPS 4800 BR OVC002 01/01 Q1018 R06/290060 TEMPO 0500 FG RMK QBB060 OBST OBSC
Conditions at: URWW (VOLGOGRAD/GUMRAK, RU) observed 0630 UTC 22 March 2019
Temperature: 1.0°C (34°F)
Dewpoint: 1.0°C (34°F) [RH = 100%]
Pressure (altimeter): 30.06 inches Hg (1018.0 mb)
Winds: from the W (260 degrees) at 7 MPH (6 knots; 3.1 m/s)
Visibility: 2.98 miles (4.80 km)
Ceiling: 200 feet AGL
Clouds: overcast cloud deck at 200 feet AGL
Weather: BR  (mist)

METAR text: URWW 220600Z 25003MPS 0800 0450NE R06/1600U FG VV001 01/01 Q1018 R06/290060 NOSIG RMK QBB050 OBST OBSC
Conditions at: URWW (VOLGOGRAD/GUMRAK, RU) observed 0600 UTC 22 March 2019
Temperature: 1.0°C (34°F)
Dewpoint: 1.0°C (34°F) [RH = 100%]
Pressure (altimeter): 30.06 inches Hg (1018.0 mb)
Winds: from the WSW (250 degrees) at 7 MPH (6 knots; 3.1 m/s)
Visibility: 0.50 miles (0.80 km)
Ceiling: indefinite ceiling with vertical visibility of 100 feet AGL
Clouds: obscured sky
Weather: FG  (fog)

METAR text: URWW 220530Z 27003MPS 230V290 0200 0150NE R06/0300N FZFG VV001 M00/M00 Q1018 R06/290060 NOSIG RMK QBB050 OBST OBSC
Conditions at: URWW (VOLGOGRAD/GUMRAK, RU) observed 0530 UTC 22 March 2019
Temperature: 0.0°C (32°F)
Dewpoint: 0.0°C (32°F) [RH = 100%]
Pressure (altimeter): 30.06 inches Hg (1018.0 mb)
Winds: from the W (270 degrees) at 7 MPH (6 knots; 3.1 m/s)
Visibility: 0.12 miles (0.19 km)
Ceiling: indefinite ceiling with vertical visibility of 100 feet AGL
Clouds: obscured sky
Weather: FZFG  (freezing fog)

METAR text: URWW 220500Z 27003MPS 0150 0100NE R06/0150N FZFG VV001 M01/M01 Q1018 R06/290060 NOSIG RMK QBB050 OBST OBSC
Conditions at: URWW (VOLGOGRAD/GUMRAK, RU) observed 0500 UTC 22 March 2019
Temperature: -1.0°C (30°F)
Dewpoint: -1.0°C (30°F) [RH = 100%]
Pressure (altimeter): 30.06 inches Hg (1018.0 mb)
Winds: from the W (270 degrees) at 7 MPH (6 knots; 3.1 m/s)
Visibility: 0.09 miles (0.14 km)
Ceiling: indefinite ceiling with vertical visibility of 100 feet AGL
Clouds: obscured sky
Weather: FZFG  (freezing fog)

METAR text: URWW 220430Z 27003MPS 0100 R06/0150N FZFG VV001 M01/M01 Q1018 R06/290060 NOSIG RMK QBB050 OBST OBSC
Conditions at: URWW (VOLGOGRAD/GUMRAK, RU) observed 0430 UTC 22 March 2019
Temperature: -1.0°C (30°F)
Dewpoint: -1.0°C (30°F) [RH = 100%]
Pressure (altimeter): 30.06 inches Hg (1018.0 mb)
Winds: from the W (270 degrees) at 7 MPH (6 knots; 3.1 m/s)
Visibility: 0.06 miles (0.10 km)
Ceiling: indefinite ceiling with vertical visibility of 100 feet AGL
Clouds: obscured sky
Weather: FZFG  (freezing fog)

METAR text: URWW 220400Z 28003MPS 260V070 0150 0100NW R06/0150N FZFG VV001 M01/M01 Q1018 R06/290060 NOSIG RMK QBB050 OBST OBSC
Conditions at: URWW (VOLGOGRAD/GUMRAK, RU) observed 0400 UTC 22 March 2019
Temperature: -1.0°C (30°F)
Dewpoint: -1.0°C (30°F) [RH = 100%]
Pressure (altimeter): 30.06 inches Hg (1018.0 mb)
Winds: from the W (280 degrees) at 7 MPH (6 knots; 3.1 m/s)
Visibility: 0.09 miles (0.14 km)
Ceiling: indefinite ceiling with vertical visibility of 100 feet AGL
Clouds: obscured sky
Weather: FZFG  (freezing fog)

METAR text: URWW 220330Z 31002MPS 290V100 0100 R06/0150N FZFG VV001 M01/M01 Q1018 R06/290060 NOSIG RMK QBB040 OBST OBSC
Conditions at: URWW (VOLGOGRAD/GUMRAK, RU) observed 0330 UTC 22 March 2019
Temperature: -1.0°C (30°F)
Dewpoint: -1.0°C (30°F) [RH = 100%]
Pressure (altimeter): 30.06 inches Hg (1018.0 mb)
Winds: from the NW (310 degrees) at 5 MPH (4 knots; 2.1 m/s)
Visibility: 0.06 miles (0.10 km)
Ceiling: indefinite ceiling with vertical visibility of 100 feet AGL
Clouds: obscured sky
Weather: FZFG  (freezing fog)

METAR text: URWW 220300Z 29003MPS 280V090 9999 OVC003 00/M01 Q1018 R06/290060 TEMPO 1000 SHSN BKN002 BKN020CB
Conditions at: URWW (VOLGOGRAD/GUMRAK, RU) observed 0300 UTC 22 March 2019
Temperature: 0.0°C (32°F)
Dewpoint: -1.0°C (30°F) [RH = 93%]
Pressure (altimeter): 30.06 inches Hg (1018.0 mb)
Winds: from the WNW (290 degrees) at 7 MPH (6 knots; 3.1 m/s)
Visibility: 6 or more miles (10+ km)
Ceiling: 300 feet AGL
Clouds: overcast cloud deck at 300 feet AGL
Weather: no significant weather observed at this time

METAR text: URWW 220230Z 32003MPS 310V030 9999 OVC007 01/M00 Q1018 R06/290255 TEMPO 1000 SHSN BKN002 BKN020CB RMK OBST OBSC
Conditions at: URWW (VOLGOGRAD/GUMRAK, RU) observed 0230 UTC 22 March 2019
Temperature: 1.0°C (34°F)
Dewpoint: 0.0°C (32°F) [RH = 93%]
Pressure (altimeter): 30.06 inches Hg (1018.0 mb)
Winds: from the NW (320 degrees) at 7 MPH (6 knots; 3.1 m/s)
Visibility: 6 or more miles (10+ km)
Ceiling: 700 feet AGL
Clouds: overcast cloud deck at 700 feet AGL
Weather: no significant weather observed at this time

METAR text: URWW 220200Z 33003MPS 230V350 9999 OVC007 01/M00 Q1018 R06/290255 TEMPO 0400 FG RMK OBST OBSC
Conditions at: URWW (VOLGOGRAD/GUMRAK, RU) observed 0200 UTC 22 March 2019
Temperature: 1.0°C (34°F)
Dewpoint: 0.0°C (32°F) [RH = 93%]
Pressure (altimeter): 30.06 inches Hg (1018.0 mb)
Winds: from the NNW (330 degrees) at 7 MPH (6 knots; 3.1 m/s)
Visibility: 6 or more miles (10+ km)
Ceiling: 700 feet AGL
Clouds: overcast cloud deck at 700 feet AGL
Weather: no significant weather observed at this time

METAR text: URWW 220130Z 33004MPS 9999 OVC006 01/M01 Q1018 R06/290255 TEMPO 0400 FG RMK OBST OBSC
Conditions at: URWW (VOLGOGRAD/GUMRAK, RU) observed 0130 UTC 22 March 2019
Temperature: 1.0°C (34°F)
Dewpoint: -1.0°C (30°F) [RH = 86%]
Pressure (altimeter): 30.06 inches Hg (1018.0 mb)
Winds: from the NNW (330 degrees) at 9 MPH (8 knots; 4.1 m/s)
Visibility: 6 or more miles (10+ km)
Ceiling: 600 feet AGL
Clouds: overcast cloud deck at 600 feet AGL
Weather: no significant weather observed at this time

METAR text: URWW 220100Z 34005MPS 230V360 9999 OVC005 01/00 Q1018 R06/290255 TEMPO 0400 FG RMK OBST OBSC
Conditions at: URWW (VOLGOGRAD/GUMRAK, RU) observed 0100 UTC 22 March 2019
Temperature: 1.0°C (34°F)
Dewpoint: 0.0°C (32°F) [RH = 93%]
Pressure (altimeter): 30.06 inches Hg (1018.0 mb)
Winds: from the NNW (340 degrees) at 12 MPH (10 knots; 5.1 m/s)
Visibility: 6 or more miles (10+ km)
Ceiling: 500 feet AGL
Clouds: overcast cloud deck at 500 feet AGL
Weather: no significant weather observed at this time

METAR text: URWW 220030Z 35005MPS 9999 OVC006 01/00 Q1018 R06/290255 TEMPO 0400 FG RMK OBST OBSC
Conditions at: URWW (VOLGOGRAD/GUMRAK, RU) observed 0030 UTC 22 March 2019
Temperature: 1.0°C (34°F)
Dewpoint: 0.0°C (32°F) [RH = 93%]
Pressure (altimeter): 30.06 inches Hg (1018.0 mb)
Winds: from the N (350 degrees) at 12 MPH (10 knots; 5.1 m/s)
Visibility: 6 or more miles (10+ km)
Ceiling: 600 feet AGL
Clouds: overcast cloud deck at 600 feet AGL
Weather: no significant weather observed at this time

METAR text: URWW 220000Z 34006MPS 9999 OVC004 01/01 Q1018 R06/290255 TEMPO 0400 FG RMK OBST OBSC
Conditions at: URWW (VOLGOGRAD/GUMRAK, RU) observed 0000 UTC 22 March 2019
Temperature: 1.0°C (34°F)
Dewpoint: 1.0°C (34°F) [RH = 100%]
Pressure (altimeter): 30.06 inches Hg (1018.0 mb)
Winds: from the NNW (340 degrees) at 14 MPH (12 knots; 6.2 m/s)
Visibility: 6 or more miles (10+ km)
Ceiling: 400 feet AGL
Clouds: overcast cloud deck at 400 feet AGL
Weather: no significant weather observed at this time

METAR text: URWW 212330Z 34006MPS 9999 OVC003 01/01 Q1018 R06/290255 TEMPO 0400 FG RMK OBST OBSC
Conditions at: URWW (VOLGOGRAD/GUMRAK, RU) observed 2330 UTC 21 March 2019
Temperature: 1.0°C (34°F)
Dewpoint: 1.0°C (34°F) [RH = 100%]
Pressure (altimeter): 30.06 inches Hg (1018.0 mb)
Winds: from the NNW (340 degrees) at 14 MPH (12 knots; 6.2 m/s)
Visibility: 6 or more miles (10+ km)
Ceiling: 300 feet AGL
Clouds: overcast cloud deck at 300 feet AGL
Weather: no significant weather observed at this time

METAR text: URWW 212300Z 33005MPS 230V350 7000 OVC002 01/01 Q1018 R06/290255 TEMPO 0400 FG RMK QBB060 OBST OBSC
Conditions at: URWW (VOLGOGRAD/GUMRAK, RU) observed 2300 UTC 21 March 2019
Temperature: 1.0°C (34°F)
Dewpoint: 1.0°C (34°F) [RH = 100%]
Pressure (altimeter): 30.06 inches Hg (1018.0 mb)
Winds: from the NNW (330 degrees) at 12 MPH (10 knots; 5.1 m/s)
Visibility: 4 miles ( 7 km)
Ceiling: 200 feet AGL
Clouds: overcast cloud deck at 200 feet AGL
Weather: no significant weather observed at this time

METAR text: URWW 212230Z 32005MPS 9999 OVC002 01/01 Q1018 R06/290255 TEMPO 0400 FG RMK OBST OBSC
Conditions at: URWW (VOLGOGRAD/GUMRAK, RU) observed 2230 UTC 21 March 2019
Temperature: 1.0°C (34°F)
Dewpoint: 1.0°C (34°F) [RH = 100%]
Pressure (altimeter): 30.06 inches Hg (1018.0 mb)
Winds: from the NW (320 degrees) at 12 MPH (10 knots; 5.1 m/s)
Visibility: 6 or more miles (10+ km)
Ceiling: 200 feet AGL
Clouds: overcast cloud deck at 200 feet AGL
Weather: no significant weather observed at this time

METAR text: URWW 212200Z 33005MPS 9000 -SHSN BKN002 OVC022CB 01/01 Q1018 R06/290255 TEMPO 0400 FG RMK OBST OBSC
Conditions at: URWW (VOLGOGRAD/GUMRAK, RU) observed 2200 UTC 21 March 2019
Temperature: 1.0°C (34°F)
Dewpoint: 1.0°C (34°F) [RH = 100%]
Pressure (altimeter): 30.06 inches Hg (1018.0 mb)
Winds: from the NNW (330 degrees) at 12 MPH (10 knots; 5.1 m/s)
Visibility: 6 miles ( 9 km)
Ceiling: 200 feet AGL
Clouds: broken clouds at 200 feet AGL
overcast cloud deck at 2200 feet AGL
Weather: -SHSN  (light snow showers)

METAR text: URWW 212130Z 34004MPS 9000 -SHSN BKN002 OVC029CB 01/01 Q1018 R06/290255 TEMPO 0400 +SHRASN RMK OBST OBSC
Conditions at: URWW (VOLGOGRAD/GUMRAK, RU) observed 2130 UTC 21 March 2019
Temperature: 1.0°C (34°F)
Dewpoint: 1.0°C (34°F) [RH = 100%]
Pressure (altimeter): 30.06 inches Hg (1018.0 mb)
Winds: from the NNW (340 degrees) at 9 MPH (8 knots; 4.1 m/s)
Visibility: 6 miles ( 9 km)
Ceiling: 200 feet AGL
Clouds: broken clouds at 200 feet AGL
overcast cloud deck at 2900 feet AGL
Weather: -SHSN  (light snow showers)

METAR text: URWW 212100Z 34003MPS 300V360 9999 -SHRASN BKN003 OVC036CB 01/01 Q1018 R06/290060 TEMPO 0400 +SHRASN RMK OBST OBSC
Conditions at: URWW (VOLGOGRAD/GUMRAK, RU) observed 2100 UTC 21 March 2019
Temperature: 1.0°C (34°F)
Dewpoint: 1.0°C (34°F) [RH = 100%]
Pressure (altimeter): 30.06 inches Hg (1018.0 mb)
Winds: from the NNW (340 degrees) at 7 MPH (6 knots; 3.1 m/s)
Visibility: 6 or more miles (10+ km)
Ceiling: 300 feet AGL
Clouds: broken clouds at 300 feet AGL
overcast cloud deck at 3600 feet AGL
Weather: -SHRA -SHSN  (light rain showers, light snow showers)

METAR text: URWW 212030Z 35005MPS 240V010 9999 -SHRA BKN003 OVC040CB 01/01 Q1018 R06/290060 TEMPO 0400 +SHRASN BKN002 BKN020CB RMK OBST OBSC
Conditions at: URWW (VOLGOGRAD/GUMRAK, RU) observed 2030 UTC 21 March 2019
Temperature: 1.0°C (34°F)
Dewpoint: 1.0°C (34°F) [RH = 100%]
Pressure (altimeter): 30.06 inches Hg (1018.0 mb)
Winds: from the N (350 degrees) at 12 MPH (10 knots; 5.1 m/s)
Visibility: 6 or more miles (10+ km)
Ceiling: 300 feet AGL
Clouds: broken clouds at 300 feet AGL
overcast cloud deck at 4000 feet AGL
Weather: -SHRA  (light rain showers)

METAR text: URWW 212000Z 34005MPS 9999 -SHRA BKN003 OVC036CB 02/01 Q1018 R06/290060 TEMPO 0400 +SHRASN BKN002 BKN020CB RMK OBST OBSC
Conditions at: URWW (VOLGOGRAD/GUMRAK, RU) observed 2000 UTC 21 March 2019
Temperature: 2.0°C (36°F)
Dewpoint: 1.0°C (34°F) [RH = 93%]
Pressure (altimeter): 30.06 inches Hg (1018.0 mb)
Winds: from the NNW (340 degrees) at 12 MPH (10 knots; 5.1 m/s)
Visibility: 6 or more miles (10+ km)
Ceiling: 300 feet AGL
Clouds: broken clouds at 300 feet AGL
overcast cloud deck at 3600 feet AGL
Weather: -SHRA  (light rain showers)

METAR text: URWW 211930Z 34005MPS 9999 -SHRA BKN004 OVC036CB 02/01 Q1018 R06/290060 TEMPO 0400 +SHRASN BKN002 BKN020CB RMK OBST OBSC
Conditions at: URWW (VOLGOGRAD/GUMRAK, RU) observed 1930 UTC 21 March 2019
Temperature: 2.0°C (36°F)
Dewpoint: 1.0°C (34°F) [RH = 93%]
Pressure (altimeter): 30.06 inches Hg (1018.0 mb)
Winds: from the NNW (340 degrees) at 12 MPH (10 knots; 5.1 m/s)
Visibility: 6 or more miles (10+ km)
Ceiling: 400 feet AGL
Clouds: broken clouds at 400 feet AGL
overcast cloud deck at 3600 feet AGL
Weather: -SHRA  (light rain showers)

METAR text: URWW 211900Z 34006MPS 9999 -SHRA SCT004 BKN036CB 03/01 Q1018 R06/290060 TEMPO 0400 +SHRASN BKN002 BKN020CB RMK OBST OBSC
Conditions at: URWW (VOLGOGRAD/GUMRAK, RU) observed 1900 UTC 21 March 2019
Temperature: 3.0°C (37°F)
Dewpoint: 1.0°C (34°F) [RH = 87%]
Pressure (altimeter): 30.06 inches Hg (1018.0 mb)
Winds: from the NNW (340 degrees) at 14 MPH (12 knots; 6.2 m/s)
Visibility: 6 or more miles (10+ km)
Ceiling: 3600 feet AGL
Clouds: scattered clouds at 400 feet AGL
broken clouds at 3600 feet AGL
Weather: -SHRA  (light rain showers)

METAR text: URWW 211830Z 35006MPS 9999 -SHRA SCT004 BKN040CB 03/01 Q1018 R06/010070 TEMPO 0400 +SHRASN BKN002 BKN020CB RMK OBST OBSC
Conditions at: URWW (VOLGOGRAD/GUMRAK, RU) observed 1830 UTC 21 March 2019
Temperature: 3.0°C (37°F)
Dewpoint: 1.0°C (34°F) [RH = 87%]
Pressure (altimeter): 30.06 inches Hg (1018.0 mb)
Winds: from the N (350 degrees) at 14 MPH (12 knots; 6.2 m/s)
Visibility: 6 or more miles (10+ km)
Ceiling: 4000 feet AGL
Clouds: scattered clouds at 400 feet AGL
broken clouds at 4000 feet AGL
Weather: -SHRA  (light rain showers)

METAR text: URWW 211800Z 35006MPS 9999 -SHRA BKN034CB 04/02 Q1019 R06/010070 TEMPO 0500 +SHRASN BKN003 BKN020CB
Conditions at: URWW (VOLGOGRAD/GUMRAK, RU) observed 1800 UTC 21 March 2019
Temperature: 4.0°C (39°F)
Dewpoint: 2.0°C (36°F) [RH = 87%]
Pressure (altimeter): 30.09 inches Hg (1019.0 mb)
Winds: from the N (350 degrees) at 14 MPH (12 knots; 6.2 m/s)
Visibility: 6 or more miles (10+ km)
Ceiling: 3400 feet AGL
Clouds: broken clouds at 3400 feet AGL
Weather: -SHRA  (light rain showers)

METAR text: URWW 211730Z 36006MPS 9999 BKN046 04/02 Q1019 R06/010070 TEMPO 1000 SHRA BKN003 BKN020CB
Conditions at: URWW (VOLGOGRAD/GUMRAK, RU) observed 1730 UTC 21 March 2019
Temperature: 4.0°C (39°F)
Dewpoint: 2.0°C (36°F) [RH = 87%]
Pressure (altimeter): 30.09 inches Hg (1019.0 mb)
Winds: from the N (360 degrees) at 14 MPH (12 knots; 6.2 m/s)
Visibility: 6 or more miles (10+ km)
Ceiling: 4600 feet AGL
Clouds: broken clouds at 4600 feet AGL
Weather: no significant weather observed at this time

METAR text: URWW 211700Z 35006MPS 9999 BKN045 05/03 Q1019 R06/010070 TEMPO 1000 SHRA BKN003 BKN020CB
Conditions at: URWW (VOLGOGRAD/GUMRAK, RU) observed 1700 UTC 21 March 2019
Temperature: 5.0°C (41°F)
Dewpoint: 3.0°C (37°F) [RH = 87%]
Pressure (altimeter): 30.09 inches Hg (1019.0 mb)
Winds: from the N (350 degrees) at 14 MPH (12 knots; 6.2 m/s)
Visibility: 6 or more miles (10+ km)
Ceiling: 4500 feet AGL
Clouds: broken clouds at 4500 feet AGL
Weather: no significant weather observed at this time

METAR text: URWW 211630Z 36006MPS CAVOK 06/03 Q1019 R06/010070 NOSIG
Conditions at: URWW (VOLGOGRAD/GUMRAK, RU) observed 1630 UTC 21 March 2019
Temperature: 6.0°C (43°F)
Dewpoint: 3.0°C (37°F) [RH = 81%]
Pressure (altimeter): 30.09 inches Hg (1019.0 mb)
Winds: from the N (360 degrees) at 14 MPH (12 knots; 6.2 m/s)
Visibility: 6 or more miles (10+ km)
Ceiling: ceiling and visibility are OK
Clouds: unknown
Weather: no significant weather observed at this time

METAR text: URWW 211600Z 36006MPS CAVOK 06/03 Q1018 R06/010070 NOSIG
Conditions at: URWW (VOLGOGRAD/GUMRAK, RU) observed 1600 UTC 21 March 2019
Temperature: 6.0°C (43°F)
Dewpoint: 3.0°C (37°F) [RH = 81%]
Pressure (altimeter): 30.06 inches Hg (1018.0 mb)
Winds: from the N (360 degrees) at 14 MPH (12 knots; 6.2 m/s)
Visibility: 6 or more miles (10+ km)
Ceiling: ceiling and visibility are OK
Clouds: unknown
Weather: no significant weather observed at this time

METAR text: URWW 211530Z 36006MPS CAVOK 07/04 Q1018 R24/010070 NOSIG
Conditions at: URWW (VOLGOGRAD/GUMRAK, RU) observed 1530 UTC 21 March 2019
Temperature: 7.0°C (45°F)
Dewpoint: 4.0°C (39°F) [RH = 81%]
Pressure (altimeter): 30.06 inches Hg (1018.0 mb)
Winds: from the N (360 degrees) at 14 MPH (12 knots; 6.2 m/s)
Visibility: 6 or more miles (10+ km)
Ceiling: ceiling and visibility are OK
Clouds: unknown
Weather: no significant weather observed at this time

METAR text: URWW 211500Z 22004MPS CAVOK 09/00 Q1018 R24/010070 NOSIG
Conditions at: URWW (VOLGOGRAD/GUMRAK, RU) observed 1500 UTC 21 March 2019
Temperature: 9.0°C (48°F)
Dewpoint: 0.0°C (32°F) [RH = 53%]
Pressure (altimeter): 30.06 inches Hg (1018.0 mb)
Winds: from the SW (220 degrees) at 9 MPH (8 knots; 4.1 m/s)
Visibility: 6 or more miles (10+ km)
Ceiling: ceiling and visibility are OK
Clouds: unknown
Weather: no significant weather observed at this time

METAR text: URWW 211430Z 24005MPS CAVOK 10/00 Q1018 R24/010070 NOSIG
Conditions at: URWW (VOLGOGRAD/GUMRAK, RU) observed 1430 UTC 21 March 2019
Temperature: 10.0°C (50°F)
Dewpoint: 0.0°C (32°F) [RH = 50%]
Pressure (altimeter): 30.06 inches Hg (1018.0 mb)
Winds: from the WSW (240 degrees) at 12 MPH (10 knots; 5.1 m/s)
Visibility: 6 or more miles (10+ km)
Ceiling: ceiling and visibility are OK
Clouds: unknown
Weather: no significant weather observed at this time

METAR text: URWW 211400Z 25006MPS CAVOK 12/M01 Q1018 R24/010070 NOSIG
Conditions at: URWW (VOLGOGRAD/GUMRAK, RU) observed 1400 UTC 21 March 2019
Temperature: 12.0°C (54°F)
Dewpoint: -1.0°C (30°F) [RH = 40%]
Pressure (altimeter): 30.06 inches Hg (1018.0 mb)
Winds: from the WSW (250 degrees) at 14 MPH (12 knots; 6.2 m/s)
Visibility: 6 or more miles (10+ km)
Ceiling: ceiling and visibility are OK
Clouds: unknown
Weather: no significant weather observed at this time

METAR text: URWW 211330Z 24006MPS CAVOK 12/M02 Q1018 R24/010070 NOSIG
Conditions at: URWW (VOLGOGRAD/GUMRAK, RU) observed 1330 UTC 21 March 2019
Temperature: 12.0°C (54°F)
Dewpoint: -2.0°C (28°F) [RH = 38%]
Pressure (altimeter): 30.06 inches Hg (1018.0 mb)
Winds: from the WSW (240 degrees) at 14 MPH (12 knots; 6.2 m/s)
Visibility: 6 or more miles (10+ km)
Ceiling: ceiling and visibility are OK
Clouds: unknown
Weather: no significant weather observed at this time

Forecast for: URWW (VOLGOGRAD/GUMRAK, RU)
Text: TAF URWW 222258Z 2300/2309 20009G14MPS 3100 -SHRASN BKN011 BKN020CB
Forecast period: 0000 to 0900 UTC 23 March 2019
Forecast type: FROM: standard forecast or significant change
Winds: from the SSW (200 degrees) at 20 MPH (17 knots; 8.7 m/s)
gusting to 31 MPH (27 knots; 13.9 m/s)
Visibility: 1.93 miles (3.11 km)
Ceiling: 1100 feet AGL
Clouds: broken clouds at 1100 feet AGL
broken clouds at 2000 feet AGL
Weather: -SHRA -SHSN  (light rain showers, light snow showers)
Text: TEMPO 2300/2306 23010G16MPS 1000 SHRASN BKN003 BKN020CB
Forecast period: 0000 to 0600 UTC 23 March 2019
Forecast type: TEMPORARY: The following changes expected for less than half the time period
Winds: from the SW (230 degrees) at 22 MPH (19 knots; 9.8 m/s)
gusting to 36 MPH (31 knots; 15.9 m/s)
Visibility: 0.62 miles (1.00 km)
Ceiling: 300 feet AGL
Clouds: broken clouds at 300 feet AGL
broken clouds at 2000 feet AGL
Weather: SHRA SHSN  (rain showers, snow showers)
Text: TEMPO 2306/2309 26010G16MPS
Forecast period: 0600 to 0900 UTC 23 March 2019
Forecast type: TEMPORARY: The following changes expected for less than half the time period
Winds: from the W (260 degrees) at 22 MPH (19 knots; 9.8 m/s)
gusting to 36 MPH (31 knots; 15.9 m/s)
Visibility: missing
Ceiling: unknown
Clouds: missing
Weather: no significant weather forecast for this period